sensor_id;sensor_type;location;lat;lon;timestamp;pressure;altitude;pressure_sealevel;temperature;humidity
49377;BME280;35253;34.688;33.040;2023-04-27T00:00:23;100636.88;;;17.91;100.00
49377;BME280;35253;34.688;33.040;2023-04-27T00:02:50;100636.63;;;17.94;100.00
49377;BME280;35253;34.688;33.040;2023-04-27T00:05:15;100631.63;;;17.89;100.00
49377;BME280;35253;34.688;33.040;2023-04-27T00:07:41;100633.91;;;17.94;100.00
49377;BME280;35253;34.688;33.040;2023-04-27T00:10:07;100625.38;;;17.89;100.00
49377;BME280;35253;34.688;33.040;2023-04-27T00:12:33;100632.19;;;17.93;100.00
49377;BME280;35253;34.688;33.040;2023-04-27T00:14:59;100623.81;;;17.96;100.00
49377;BME280;35253;34.688;33.040;2023-04-27T00:17:25;100639.28;;;17.84;100.00
49377;BME280;35253;34.688;33.040;2023-04-27T00:19:50;100634.16;;;17.72;100.00
49377;BME280;35253;34.688;33.040;2023-04-27T00:22:16;100638.13;;;17.87;100.00
49377;BME280;35253;34.688;33.040;2023-04-27T00:24:42;100638.97;;;17.78;100.00
49377;BME280;35253;34.688;33.040;2023-04-27T00:27:08;100629.34;;;17.85;100.00
49377;BME280;35253;34.688;33.040;2023-04-27T00:29:34;100632.06;;;17.94;100.00
49377;BME280;35253;34.688;33.040;2023-04-27T00:31:59;100630.78;;;17.89;100.00
49377;BME280;35253;34.688;33.040;2023-04-27T00:34:25;100633.03;;;17.84;100.00
49377;BME280;35253;34.688;33.040;2023-04-27T00:36:51;100620.69;;;17.91;100.00
49377;BME280;35253;34.688;33.040;2023-04-27T00:39:16;100627.31;;;17.77;100.00
49377;BME280;35253;34.688;33.040;2023-04-27T00:41:42;100623.50;;;17.80;100.00
49377;BME280;35253;34.688;33.040;2023-04-27T00:44:08;100619.56;;;17.84;100.00
49377;BME280;35253;34.688;33.040;2023-04-27T00:46:34;100619.69;;;17.82;100.00
49377;BME280;35253;34.688;33.040;2023-04-27T00:49:00;100620.34;;;17.65;100.00
49377;BME280;35253;34.688;33.040;2023-04-27T00:51:26;100615.94;;;17.64;100.00
49377;BME280;35253;34.688;33.040;2023-04-27T00:53:56;100618.66;;;17.74;100.00
49377;BME280;35253;34.688;33.040;2023-04-27T00:56:23;100613.44;;;17.72;100.00
49377;BME280;35253;34.688;33.040;2023-04-27T00:58:49;100613.53;;;17.61;100.00
49377;BME280;35253;34.688;33.040;2023-04-27T01:01:15;100612.59;;;17.51;100.00
49377;BME280;35253;34.688;33.040;2023-04-27T01:03:41;100607.81;;;17.54;100.00
49377;BME280;35253;34.688;33.040;2023-04-27T01:06:06;100609.25;;;17.59;100.00
49377;BME280;35253;34.688;33.040;2023-04-27T01:08:32;100603.31;;;17.65;100.00
49377;BME280;35253;34.688;33.040;2023-04-27T01:10:58;100608.25;;;17.60;100.00
49377;BME280;35253;34.688;33.040;2023-04-27T01:13:23;100604.56;;;17.61;100.00
49377;BME280;35253;34.688;33.040;2023-04-27T01:15:49;100614.25;;;17.63;100.00
49377;BME280;35253;34.688;33.040;2023-04-27T01:18:15;100608.84;;;17.73;100.00
49377;BME280;35253;34.688;33.040;2023-04-27T01:20:41;100613.72;;;17.79;100.00
49377;BME280;35253;34.688;33.040;2023-04-27T01:23:07;100606.66;;;17.57;100.00
49377;BME280;35253;34.688;33.040;2023-04-27T01:25:33;100610.75;;;17.51;100.00
49377;BME280;35253;34.688;33.040;2023-04-27T01:27:58;100614.09;;;17.65;100.00
49377;BME280;35253;34.688;33.040;2023-04-27T01:30:24;100608.50;;;17.56;100.00
49377;BME280;35253;34.688;33.040;2023-04-27T01:32:52;100607.84;;;17.64;100.00
49377;BME280;35253;34.688;33.040;2023-04-27T01:35:18;100617.06;;;17.62;100.00
49377;BME280;35253;34.688;33.040;2023-04-27T01:37:44;100612.25;;;17.65;100.00
49377;BME280;35253;34.688;33.040;2023-04-27T01:40:10;100611.56;;;17.63;100.00
49377;BME280;35253;34.688;33.040;2023-04-27T01:42:36;100607.72;;;17.66;100.00
49377;BME280;35253;34.688;33.040;2023-04-27T01:45:02;100613.44;;;17.51;100.00
49377;BME280;35253;34.688;33.040;2023-04-27T01:47:28;100611.75;;;17.50;100.00
49377;BME280;35253;34.688;33.040;2023-04-27T01:49:54;100604.66;;;17.49;100.00
49377;BME280;35253;34.688;33.040;2023-04-27T01:52:20;100605.88;;;17.36;100.00
49377;BME280;35253;34.688;33.040;2023-04-27T01:54:45;100611.56;;;17.42;100.00
49377;BME280;35253;34.688;33.040;2023-04-27T01:57:11;100608.63;;;17.45;100.00
49377;BME280;35253;34.688;33.040;2023-04-27T01:59:38;100610.22;;;17.57;100.00
49377;BME280;35253;34.688;33.040;2023-04-27T02:02:04;100605.44;;;17.61;100.00
49377;BME280;35253;34.688;33.040;2023-04-27T02:04:30;100604.56;;;17.61;100.00
49377;BME280;35253;34.688;33.040;2023-04-27T02:06:55;100601.38;;;17.46;100.00
49377;BME280;35253;34.688;33.040;2023-04-27T02:09:21;100604.03;;;17.36;100.00
49377;BME280;35253;34.688;33.040;2023-04-27T02:11:47;100598.19;;;17.31;100.00
49377;BME280;35253;34.688;33.040;2023-04-27T02:14:12;100600.16;;;17.29;100.00
49377;BME280;35253;34.688;33.040;2023-04-27T02:16:38;100600.97;;;17.20;100.00
49377;BME280;35253;34.688;33.040;2023-04-27T02:19:04;100603.88;;;17.28;100.00
49377;BME280;35253;34.688;33.040;2023-04-27T02:21:30;100610.66;;;17.23;100.00
49377;BME280;35253;34.688;33.040;2023-04-27T02:23:55;100614.66;;;17.28;100.00
49377;BME280;35253;34.688;33.040;2023-04-27T02:26:21;100611.56;;;17.33;100.00
49377;BME280;35253;34.688;33.040;2023-04-27T02:28:53;100608.13;;;17.31;100.00
49377;BME280;35253;34.688;33.040;2023-04-27T02:31:19;100604.13;;;17.25;100.00
49377;BME280;35253;34.688;33.040;2023-04-27T02:33:45;100620.84;;;17.19;100.00
49377;BME280;35253;34.688;33.040;2023-04-27T02:36:11;100615.31;;;17.21;100.00
49377;BME280;35253;34.688;33.040;2023-04-27T02:38:36;100604.41;;;17.22;100.00
49377;BME280;35253;34.688;33.040;2023-04-27T02:41:02;100593.91;;;17.19;100.00
49377;BME280;35253;34.688;33.040;2023-04-27T02:43:28;100584.63;;;17.12;100.00
49377;BME280;35253;34.688;33.040;2023-04-27T02:45:54;100585.94;;;17.18;100.00
49377;BME280;35253;34.688;33.040;2023-04-27T02:48:19;100582.09;;;17.20;100.00
49377;BME280;35253;34.688;33.040;2023-04-27T02:50:45;100593.34;;;17.25;100.00
49377;BME280;35253;34.688;33.040;2023-04-27T02:53:11;100589.25;;;17.31;100.00
49377;BME280;35253;34.688;33.040;2023-04-27T02:55:37;100591.94;;;17.31;100.00
49377;BME280;35253;34.688;33.040;2023-04-27T02:58:03;100591.91;;;17.21;100.00
49377;BME280;35253;34.688;33.040;2023-04-27T03:00:29;100584.81;;;17.20;100.00
49377;BME280;35253;34.688;33.040;2023-04-27T03:02:55;100584.28;;;17.26;100.00
49377;BME280;35253;34.688;33.040;2023-04-27T03:05:21;100585.00;;;17.28;100.00
49377;BME280;35253;34.688;33.040;2023-04-27T03:07:49;100590.81;;;17.33;100.00
49377;BME280;35253;34.688;33.040;2023-04-27T03:10:15;100585.22;;;17.46;100.00
49377;BME280;35253;34.688;33.040;2023-04-27T03:12:41;100591.56;;;17.35;100.00
49377;BME280;35253;34.688;33.040;2023-04-27T03:15:07;100590.69;;;17.35;100.00
49377;BME280;35253;34.688;33.040;2023-04-27T03:17:33;100594.25;;;17.35;100.00
49377;BME280;35253;34.688;33.040;2023-04-27T03:19:59;100593.38;;;17.35;100.00
49377;BME280;35253;34.688;33.040;2023-04-27T03:22:24;100596.81;;;17.37;100.00
49377;BME280;35253;34.688;33.040;2023-04-27T03:24:51;100588.56;;;17.38;100.00
49377;BME280;35253;34.688;33.040;2023-04-27T03:27:16;100583.78;;;17.51;100.00
49377;BME280;35253;34.688;33.040;2023-04-27T03:29:42;100585.78;;;17.49;100.00
49377;BME280;35253;34.688;33.040;2023-04-27T03:32:08;100581.38;;;17.48;100.00
49377;BME280;35253;34.688;33.040;2023-04-27T03:34:33;100587.22;;;17.53;100.00
49377;BME280;35253;34.688;33.040;2023-04-27T03:37:00;100590.91;;;17.52;100.00
49377;BME280;35253;34.688;33.040;2023-04-27T03:39:26;100589.81;;;17.65;100.00
49377;BME280;35253;34.688;33.040;2023-04-27T03:41:52;100587.84;;;17.67;100.00
49377;BME280;35253;34.688;33.040;2023-04-27T03:44:17;100572.25;;;17.70;100.00
49377;BME280;35253;34.688;33.040;2023-04-27T03:46:43;100592.56;;;17.84;100.00
49377;BME280;35253;34.688;33.040;2023-04-27T03:49:09;100590.75;;;17.94;100.00
49377;BME280;35253;34.688;33.040;2023-04-27T03:51:34;100591.88;;;18.01;100.00
49377;BME280;35253;34.688;33.040;2023-04-27T03:54:01;100592.63;;;18.03;100.00
49377;BME280;35253;34.688;33.040;2023-04-27T03:56:27;100594.16;;;18.06;100.00
49377;BME280;35253;34.688;33.040;2023-04-27T03:58:53;100589.34;;;18.09;100.00
49377;BME280;35253;34.688;33.040;2023-04-27T04:01:18;100592.19;;;18.17;100.00
49377;BME280;35253;34.688;33.040;2023-04-27T04:03:44;100594.31;;;18.23;100.00
49377;BME280;35253;34.688;33.040;2023-04-27T04:06:11;100581.81;;;18.41;100.00
49377;BME280;35253;34.688;33.040;2023-04-27T04:08:37;100590.19;;;18.48;100.00
49377;BME280;35253;34.688;33.040;2023-04-27T04:11:03;100592.34;;;18.64;100.00
49377;BME280;35253;34.688;33.040;2023-04-27T04:13:28;100592.31;;;18.83;100.00
49377;BME280;35253;34.688;33.040;2023-04-27T04:16:07;100598.38;;;19.04;100.00
49377;BME280;35253;34.688;33.040;2023-04-27T04:18:34;100594.53;;;18.97;100.00
49377;BME280;35253;34.688;33.040;2023-04-27T04:21:01;100589.44;;;18.94;100.00
49377;BME280;35253;34.688;33.040;2023-04-27T04:23:27;100589.88;;;18.89;100.00
49377;BME280;35253;34.688;33.040;2023-04-27T04:25:54;100585.34;;;18.90;100.00
49377;BME280;35253;34.688;33.040;2023-04-27T04:28:23;100581.34;;;18.94;100.00
49377;BME280;35253;34.688;33.040;2023-04-27T04:30:50;100583.31;;;18.92;100.00
49377;BME280;35253;34.688;33.040;2023-04-27T04:33:16;100583.19;;;18.94;100.00
49377;BME280;35253;34.688;33.040;2023-04-27T04:35:42;100588.72;;;18.92;100.00
49377;BME280;35253;34.688;33.040;2023-04-27T04:38:11;100583.06;;;18.85;100.00
49377;BME280;35253;34.688;33.040;2023-04-27T04:40:38;100582.22;;;18.85;100.00
49377;BME280;35253;34.688;33.040;2023-04-27T04:43:04;100583.31;;;18.92;100.00
49377;BME280;35253;34.688;33.040;2023-04-27T04:45:31;100583.84;;;19.05;100.00
49377;BME280;35253;34.688;33.040;2023-04-27T04:47:56;100585.84;;;19.13;100.00
49377;BME280;35253;34.688;33.040;2023-04-27T04:50:22;100577.75;;;19.03;100.00
49377;BME280;35253;34.688;33.040;2023-04-27T04:52:48;100579.81;;;19.19;100.00
49377;BME280;35253;34.688;33.040;2023-04-27T04:55:14;100586.91;;;19.29;100.00
49377;BME280;35253;34.688;33.040;2023-04-27T04:57:40;100580.50;;;19.30;100.00
49377;BME280;35253;34.688;33.040;2023-04-27T05:00:06;100587.16;;;19.36;100.00
49377;BME280;35253;34.688;33.040;2023-04-27T05:02:37;100588.00;;;19.36;100.00
49377;BME280;35253;34.688;33.040;2023-04-27T05:05:03;100584.22;;;19.29;100.00
49377;BME280;35253;34.688;33.040;2023-04-27T05:07:29;100577.28;;;19.17;100.00
49377;BME280;35253;34.688;33.040;2023-04-27T05:09:54;100590.28;;;19.31;100.00
49377;BME280;35253;34.688;33.040;2023-04-27T05:12:20;100602.06;;;19.40;100.00
49377;BME280;35253;34.688;33.040;2023-04-27T05:14:46;100599.06;;;19.53;100.00
49377;BME280;35253;34.688;33.040;2023-04-27T05:17:12;100594.94;;;19.49;100.00
49377;BME280;35253;34.688;33.040;2023-04-27T05:19:38;100588.81;;;19.56;100.00
49377;BME280;35253;34.688;33.040;2023-04-27T05:22:04;100592.66;;;19.54;100.00
49377;BME280;35253;34.688;33.040;2023-04-27T05:24:30;100597.56;;;19.68;100.00
49377;BME280;35253;34.688;33.040;2023-04-27T05:26:55;100596.97;;;19.74;100.00
49377;BME280;35253;34.688;33.040;2023-04-27T05:29:21;100599.28;;;19.69;100.00
49377;BME280;35253;34.688;33.040;2023-04-27T05:31:47;100597.16;;;19.90;100.00
49377;BME280;35253;34.688;33.040;2023-04-27T05:34:13;100602.88;;;19.87;100.00
49377;BME280;35253;34.688;33.040;2023-04-27T05:36:39;100603.47;;;19.81;100.00
49377;BME280;35253;34.688;33.040;2023-04-27T05:39:05;100597.16;;;19.90;100.00
49377;BME280;35253;34.688;33.040;2023-04-27T05:41:30;100588.13;;;20.17;100.00
49377;BME280;35253;34.688;33.040;2023-04-27T05:43:56;100594.00;;;20.12;100.00
49377;BME280;35253;34.688;33.040;2023-04-27T05:46:22;100595.47;;;20.24;100.00
49377;BME280;35253;34.688;33.040;2023-04-27T05:48:47;100598.31;;;19.88;100.00
49377;BME280;35253;34.688;33.040;2023-04-27T05:51:13;100597.16;;;19.90;100.00
49377;BME280;35253;34.688;33.040;2023-04-27T05:53:39;100596.72;;;20.12;100.00
49377;BME280;35253;34.688;33.040;2023-04-27T05:56:05;100597.38;;;20.14;100.00
49377;BME280;35253;34.688;33.040;2023-04-27T05:58:32;100606.63;;;20.21;100.00
49377;BME280;35253;34.688;33.040;2023-04-27T06:00:59;100596.00;;;20.10;100.00
49377;BME280;35253;34.688;33.040;2023-04-27T06:03:24;100601.50;;;20.18;100.00
49377;BME280;35253;34.688;33.040;2023-04-27T06:05:58;100612.13;;;19.85;100.00
49377;BME280;35253;34.688;33.040;2023-04-27T06:08:23;100616.63;;;19.66;100.00
49377;BME280;35253;34.688;33.040;2023-04-27T06:10:50;100623.53;;;19.61;100.00
49377;BME280;35253;34.688;33.040;2023-04-27T06:13:16;100623.38;;;19.53;100.00
49377;BME280;35253;34.688;33.040;2023-04-27T06:15:42;100612.41;;;19.64;100.00
49377;BME280;35253;34.688;33.040;2023-04-27T06:18:08;100619.06;;;19.69;100.00
49377;BME280;35253;34.688;33.040;2023-04-27T06:20:34;100612.97;;;19.85;100.00
49377;BME280;35253;34.688;33.040;2023-04-27T06:23:01;100622.00;;;19.76;100.00
49377;BME280;35253;34.688;33.040;2023-04-27T06:25:27;100623.31;;;19.72;100.00
49377;BME280;35253;34.688;33.040;2023-04-27T06:27:56;100616.00;;;19.82;100.00
49377;BME280;35253;34.688;33.040;2023-04-27T06:30:23;100615.09;;;19.64;100.00
49377;BME280;35253;34.688;33.040;2023-04-27T06:32:50;100626.50;;;19.58;100.00
49377;BME280;35253;34.688;33.040;2023-04-27T06:35:17;100631.56;;;19.33;100.00
49377;BME280;35253;34.688;33.040;2023-04-27T06:37:43;100643.25;;;19.44;100.00
49377;BME280;35253;34.688;33.040;2023-04-27T06:40:09;100641.78;;;19.40;100.00
49377;BME280;35253;34.688;33.040;2023-04-27T06:42:35;100639.25;;;19.48;100.00
49377;BME280;35253;34.688;33.040;2023-04-27T06:45:01;100639.94;;;19.50;100.00
49377;BME280;35253;34.688;33.040;2023-04-27T06:47:28;100635.38;;;19.41;100.00
49377;BME280;35253;34.688;33.040;2023-04-27T06:49:54;100634.38;;;19.42;100.00
49377;BME280;35253;34.688;33.040;2023-04-27T06:52:19;100623.56;;;19.42;100.00
49377;BME280;35253;34.688;33.040;2023-04-27T06:54:45;100624.88;;;19.47;100.00
49377;BME280;35253;34.688;33.040;2023-04-27T06:57:11;100623.56;;;19.51;100.00
49377;BME280;35253;34.688;33.040;2023-04-27T06:59:36;100624.63;;;19.68;100.00
49377;BME280;35253;34.688;33.040;2023-04-27T07:02:03;100625.53;;;19.49;100.00
49377;BME280;35253;34.688;33.040;2023-04-27T07:04:28;100622.72;;;19.51;100.00
49377;BME280;35253;34.688;33.040;2023-04-27T07:06:54;100631.38;;;19.54;100.00
49377;BME280;35253;34.688;33.040;2023-04-27T07:09:20;100636.03;;;19.62;100.00
49377;BME280;35253;34.688;33.040;2023-04-27T07:11:46;100635.38;;;19.41;100.00
49377;BME280;35253;34.688;33.040;2023-04-27T07:14:12;100638.09;;;19.31;100.00
49377;BME280;35253;34.688;33.040;2023-04-27T07:16:38;100643.38;;;19.32;100.00
49377;BME280;35253;34.688;33.040;2023-04-27T07:19:04;100638.66;;;19.44;100.00
49377;BME280;35253;34.688;33.040;2023-04-27T07:21:29;100634.97;;;19.45;100.00
49377;BME280;35253;34.688;33.040;2023-04-27T07:23:56;100645.09;;;19.43;100.00
49377;BME280;35253;34.688;33.040;2023-04-27T07:26:22;100633.06;;;19.55;100.00
49377;BME280;35253;34.688;33.040;2023-04-27T07:28:48;100616.75;;;19.38;100.00
49377;BME280;35253;34.688;33.040;2023-04-27T07:31:15;100633.84;;;19.48;100.00
49377;BME280;35253;34.688;33.040;2023-04-27T07:33:41;100636.03;;;19.62;100.00
49377;BME280;35253;34.688;33.040;2023-04-27T07:36:07;100643.44;;;19.60;100.00
49377;BME280;35253;34.688;33.040;2023-04-27T07:38:32;100639.03;;;19.59;100.00
49377;BME280;35253;34.688;33.040;2023-04-27T07:40:59;100642.03;;;19.56;100.00
49377;BME280;35253;34.688;33.040;2023-04-27T07:43:32;100640.91;;;19.49;100.00
49377;BME280;35253;34.688;33.040;2023-04-27T07:45:57;100632.94;;;19.57;100.00
49377;BME280;35253;34.688;33.040;2023-04-27T07:48:23;100638.06;;;19.41;100.00
49377;BME280;35253;34.688;33.040;2023-04-27T07:50:49;100633.72;;;19.30;100.00
49377;BME280;35253;34.688;33.040;2023-04-27T07:53:16;100645.19;;;19.42;100.00
49377;BME280;35253;34.688;33.040;2023-04-27T07:55:42;100639.50;;;19.35;100.00
49377;BME280;35253;34.688;33.040;2023-04-27T07:58:11;100630.06;;;19.21;100.00
49377;BME280;35253;34.688;33.040;2023-04-27T08:00:37;100631.06;;;19.11;100.00
49377;BME280;35253;34.688;33.040;2023-04-27T08:03:02;100627.81;;;18.98;100.00
49377;BME280;35253;34.688;33.040;2023-04-27T08:05:29;100624.03;;;18.81;100.00
49377;BME280;35253;34.688;33.040;2023-04-27T08:07:54;100619.19;;;18.84;100.00
49377;BME280;35253;34.688;33.040;2023-04-27T08:10:20;100617.78;;;18.71;100.00
49377;BME280;35253;34.688;33.040;2023-04-27T08:12:46;100626.72;;;18.81;100.00
49377;BME280;35253;34.688;33.040;2023-04-27T08:15:12;100618.31;;;18.84;100.00
49377;BME280;35253;34.688;33.040;2023-04-27T08:17:38;100607.16;;;18.60;100.00
49377;BME280;35253;34.688;33.040;2023-04-27T08:20:06;100597.31;;;18.68;100.00
49377;BME280;35253;34.688;33.040;2023-04-27T08:22:34;100596.34;;;18.60;100.00
49377;BME280;35253;34.688;33.040;2023-04-27T08:24:59;100594.19;;;18.73;100.00
49377;BME280;35253;34.688;33.040;2023-04-27T08:27:25;100599.13;;;18.87;100.00
49377;BME280;35253;34.688;33.040;2023-04-27T08:29:50;100592.78;;;19.15;100.00
49377;BME280;35253;34.688;33.040;2023-04-27T08:32:16;100586.56;;;19.52;100.00
49377;BME280;35253;34.688;33.040;2023-04-27T08:34:42;100576.88;;;19.40;100.00
49377;BME280;35253;34.688;33.040;2023-04-27T08:37:09;100578.53;;;19.60;100.00
49377;BME280;35253;34.688;33.040;2023-04-27T08:39:35;100585.03;;;19.67;100.00
49377;BME280;35253;34.688;33.040;2023-04-27T08:42:00;100575.59;;;19.71;100.00
49377;BME280;35253;34.688;33.040;2023-04-27T08:44:26;100581.09;;;19.79;100.00
49377;BME280;35253;34.688;33.040;2023-04-27T08:46:52;100571.00;;;19.81;100.00
49377;BME280;35253;34.688;33.040;2023-04-27T08:49:18;100584.69;;;19.97;100.00
49377;BME280;35253;34.688;33.040;2023-04-27T08:51:44;100587.78;;;20.02;100.00
49377;BME280;35253;34.688;33.040;2023-04-27T08:54:10;100584.63;;;20.24;100.00
49377;BME280;35253;34.688;33.040;2023-04-27T08:56:36;100583.59;;;20.53;100.00
49377;BME280;35253;34.688;33.040;2023-04-27T08:59:12;100582.09;;;20.41;100.00
49377;BME280;35253;34.688;33.040;2023-04-27T09:01:43;100574.34;;;20.63;100.00
49377;BME280;35253;34.688;33.040;2023-04-27T09:04:09;100576.19;;;20.27;100.00
49377;BME280;35253;34.688;33.040;2023-04-27T09:06:36;100575.75;;;20.50;100.00
49377;BME280;35253;34.688;33.040;2023-04-27T09:09:02;100563.72;;;20.70;100.00
49377;BME280;35253;34.688;33.040;2023-04-27T09:13:57;100566.13;;;20.73;100.00
49377;BME280;35253;34.688;33.040;2023-04-27T09:16:23;100559.59;;;21.09;100.00
49377;BME280;35253;34.688;33.040;2023-04-27T09:18:49;100561.03;;;21.22;100.00
49377;BME280;35253;34.688;33.040;2023-04-27T09:21:26;100548.84;;;21.26;100.00
49377;BME280;35253;34.688;33.040;2023-04-27T09:23:52;100553.25;;;21.27;100.00
49377;BME280;35253;34.688;33.040;2023-04-27T09:26:21;100551.19;;;21.21;100.00
49377;BME280;35253;34.688;33.040;2023-04-27T09:28:49;100554.28;;;20.74;100.00
49377;BME280;35253;34.688;33.040;2023-04-27T09:31:15;100555.88;;;21.10;100.00
49377;BME280;35253;34.688;33.040;2023-04-27T09:33:42;100535.72;;;21.55;100.00
49377;BME280;35253;34.688;33.040;2023-04-27T09:36:09;100552.56;;;20.99;100.00
49377;BME280;35253;34.688;33.040;2023-04-27T09:38:34;100545.44;;;20.72;100.00
49377;BME280;35253;34.688;33.040;2023-04-27T09:41:01;100533.78;;;21.31;100.00
49377;BME280;35253;34.688;33.040;2023-04-27T09:43:28;100545.97;;;21.85;100.00
49377;BME280;35253;34.688;33.040;2023-04-27T09:45:55;100535.47;;;21.82;100.00
49377;BME280;35253;34.688;33.040;2023-04-27T09:48:22;100527.34;;;21.82;100.00
49377;BME280;35253;34.688;33.040;2023-04-27T09:50:50;100520.03;;;21.83;100.00
49377;BME280;35253;34.688;33.040;2023-04-27T09:53:18;100525.72;;;22.54;100.00
49377;BME280;35253;34.688;33.040;2023-04-27T09:56:08;100532.16;;;22.61;100.00
49377;BME280;35253;34.688;33.040;2023-04-27T09:58:44;100537.28;;;22.16;100.00
49377;BME280;35253;34.688;33.040;2023-04-27T10:01:39;100532.31;;;22.03;100.00
49377;BME280;35253;34.688;33.040;2023-04-27T10:04:38;100535.59;;;21.73;100.00
49377;BME280;35253;34.688;33.040;2023-04-27T10:07:14;100529.97;;;21.50;100.00
49377;BME280;35253;34.688;33.040;2023-04-27T10:09:49;100530.38;;;21.71;100.00
49377;BME280;35253;34.688;33.040;2023-04-27T10:13:20;100541.13;;;21.47;100.00
49377;BME280;35253;34.688;33.040;2023-04-27T10:15:15;100543.25;;;21.69;100.00
49377;BME280;35253;34.688;33.040;2023-04-27T10:17:49;100524.69;;;22.07;100.00
49377;BME280;35253;34.688;33.040;2023-04-27T10:20:15;100524.34;;;22.10;100.00
49377;BME280;35253;34.688;33.040;2023-04-27T10:22:43;100536.09;;;22.51;100.00
49377;BME280;35253;34.688;33.040;2023-04-27T10:25:20;100525.88;;;22.53;100.00
49377;BME280;35253;34.688;33.040;2023-04-27T10:28:00;100530.13;;;22.47;100.00
49377;BME280;35253;34.688;33.040;2023-04-27T10:30:32;100523.69;;;22.40;100.00
49377;BME280;35253;34.688;33.040;2023-04-27T10:33:03;100519.09;;;22.24;100.00
49377;BME280;35253;34.688;33.040;2023-04-27T10:35:40;100524.50;;;22.89;100.00
49377;BME280;35253;34.688;33.040;2023-04-27T10:38:15;100519.41;;;22.94;100.00
49377;BME280;35253;34.688;33.040;2023-04-27T10:40:44;100516.34;;;23.36;100.00
49377;BME280;35253;34.688;33.040;2023-04-27T10:43:12;100523.59;;;23.05;100.00
49377;BME280;35253;34.688;33.040;2023-04-27T10:45:39;100510.78;;;22.50;100.00
49377;BME280;35253;34.688;33.040;2023-04-27T10:48:06;100514.78;;;23.03;100.00
49377;BME280;35253;34.688;33.040;2023-04-27T10:50:32;100515.34;;;23.29;100.00
49377;BME280;35253;34.688;33.040;2023-04-27T10:53:06;100514.50;;;22.57;100.00
49377;BME280;35253;34.688;33.040;2023-04-27T10:55:34;100502.81;;;22.73;100.00
49377;BME280;35253;34.688;33.040;2023-04-27T10:58:00;100501.94;;;22.72;100.00
49377;BME280;35253;34.688;33.040;2023-04-27T11:00:34;100508.38;;;22.47;100.00
49377;BME280;35253;34.688;33.040;2023-04-27T11:03:18;100497.34;;;23.28;100.00
49377;BME280;35253;34.688;33.040;2023-04-27T11:05:47;100504.75;;;23.42;100.00
49377;BME280;35253;34.688;33.040;2023-04-27T11:08:17;100504.25;;;23.77;100.00
49377;BME280;35253;34.688;33.040;2023-04-27T11:10:46;100501.63;;;23.14;100.00
49377;BME280;35253;34.688;33.040;2023-04-27T11:13:16;100491.28;;;23.79;100.00
49377;BME280;35253;34.688;33.040;2023-04-27T11:15:43;100491.59;;;23.85;100.00
49377;BME280;35253;34.688;33.040;2023-04-27T11:18:09;100492.06;;;22.63;100.00
49377;BME280;35253;34.688;33.040;2023-04-27T11:20:35;100485.59;;;23.27;100.00
49377;BME280;35253;34.688;33.040;2023-04-27T11:23:01;100488.44;;;23.42;100.00
49377;BME280;35253;34.688;33.040;2023-04-27T11:25:28;100478.78;;;23.31;100.00
49377;BME280;35253;34.688;33.040;2023-04-27T11:27:54;100489.13;;;23.36;100.00
49377;BME280;35253;34.688;33.040;2023-04-27T11:30:21;100484.19;;;23.40;100.00
49377;BME280;35253;34.688;33.040;2023-04-27T11:32:48;100492.88;;;23.35;100.00
49377;BME280;35253;34.688;33.040;2023-04-27T11:35:15;100481.13;;;22.96;100.00
49377;BME280;35253;34.688;33.040;2023-04-27T11:37:41;100481.59;;;23.15;100.00
49377;BME280;35253;34.688;33.040;2023-04-27T11:40:07;100489.50;;;23.33;100.00
49377;BME280;35253;34.688;33.040;2023-04-27T11:42:34;100485.25;;;23.69;100.00
49377;BME280;35253;34.688;33.040;2023-04-27T11:45:04;100484.91;;;23.95;100.00
49377;BME280;35253;34.688;33.040;2023-04-27T11:47:31;100492.00;;;23.96;100.00
49377;BME280;35253;34.688;33.040;2023-04-27T11:49:59;100493.28;;;24.31;100.00
49377;BME280;35253;34.688;33.040;2023-04-27T11:52:36;100488.84;;;24.53;100.00
49377;BME280;35253;34.688;33.040;2023-04-27T11:55:03;100481.22;;;24.86;100.00
49377;BME280;35253;34.688;33.040;2023-04-27T11:57:31;100486.09;;;25.05;100.00
49377;BME280;35253;34.688;33.040;2023-04-27T11:59:59;100483.81;;;25.23;100.00
49377;BME280;35253;34.688;33.040;2023-04-27T12:02:29;100472.06;;;25.08;100.00
49377;BME280;35253;34.688;33.040;2023-04-27T12:04:57;100481.06;;;24.64;100.00
49377;BME280;35253;34.688;33.040;2023-04-27T12:07:23;100479.03;;;23.14;100.00
49377;BME280;35253;34.688;33.040;2023-04-27T12:09:49;100479.69;;;22.44;100.00
49377;BME280;35253;34.688;33.040;2023-04-27T12:12:15;100473.13;;;22.07;100.00
49377;BME280;35253;34.688;33.040;2023-04-27T12:14:47;100468.19;;;22.10;100.00
49377;BME280;35253;34.688;33.040;2023-04-27T12:17:13;100469.00;;;21.94;100.00
49377;BME280;35253;34.688;33.040;2023-04-27T12:19:39;100469.25;;;21.59;100.00
49377;BME280;35253;34.688;33.040;2023-04-27T12:22:04;100478.59;;;21.48;100.00
49377;BME280;35253;34.688;33.040;2023-04-27T12:24:30;100458.25;;;21.52;100.00
49377;BME280;35253;34.688;33.040;2023-04-27T12:26:57;100457.75;;;21.49;100.00
49377;BME280;35253;34.688;33.040;2023-04-27T12:29:23;100462.44;;;21.39;100.00
49377;BME280;35253;34.688;33.040;2023-04-27T12:31:50;100462.44;;;21.39;100.00